Time;durP1;ratioP1;P1;durP2;ratioP2;P2;SDS_P1;SDS_P2;PMS_P1;PMS_P2;Temp;Humidity;BMP_temperature;BMP_pressure;BME280_temperature;BME280_humidity;BME280_pressure;Samples;Min_cycle;Max_cycle;Signal;HPM_P1;HPM_P2
2022/09/12 00:01:14;;;;;;;14.82;10.15;;;14.20;99.90;;;13.24;100.00;97496.47;5073218;28;20839;-75
2022/09/12 00:03:40;;;;;;;16.00;11.33;;;14.20;99.90;;;13.21;100.00;97496.22;5072411;28;20407;-75
2022/09/12 00:06:14;;;;;;;13.95;10.30;;;14.10;99.90;;;13.23;100.00;97502.06;5073011;28;20399;-75
2022/09/12 00:08:40;;;;;;;14.63;11.30;;;14.10;99.90;;;13.20;100.00;97494.63;5073020;28;20404;-75
2022/09/12 00:11:09;;;;;;;19.60;11.57;;;14.10;99.90;;;13.21;100.00;97498.88;5072896;28;20407;-75
2022/09/12 00:13:35;;;;;;;15.95;11.25;;;14.10;99.90;;;13.20;100.00;97499.94;5071920;28;20802;-75
2022/09/12 00:16:04;;;;;;;16.05;11.18;;;14.10;99.90;;;13.16;100.00;97499.66;5072825;28;20411;-75
2022/09/12 00:18:31;;;;;;;14.77;11.00;;;14.10;99.90;;;13.13;100.00;97494.88;5072686;28;20404;-75
2022/09/12 00:21:01;;;;;;;16.73;12.23;;;14.10;99.90;;;13.14;100.00;97493.81;5072123;28;20408;-75
2022/09/12 00:23:26;;;;;;;18.90;12.13;;;14.00;99.90;;;13.12;100.00;97495.91;5072047;28;20890;-75
2022/09/12 00:25:52;;;;;;;16.52;11.70;;;14.00;99.90;;;13.10;100.00;97492.69;5072533;28;20483;-75
2022/09/12 00:28:18;;;;;;;15.63;11.93;;;14.00;99.90;;;13.08;100.00;97492.97;5072524;28;20462;-75
2022/09/12 00:30:47;;;;;;;15.65;11.50;;;14.00;99.90;;;13.07;100.00;97491.41;5072712;28;20637;-75
2022/09/12 00:33:16;;;;;;;18.25;11.85;;;14.00;99.90;;;13.05;100.00;97496.16;5071806;28;20402;-75
2022/09/12 00:35:44;;;;;;;16.20;12.32;;;14.00;99.90;;;13.03;100.00;97492.97;5072389;28;20838;-75
2022/09/12 00:38:10;;;;;;;19.02;12.05;;;14.00;99.90;;;13.03;100.00;97487.66;5072523;28;20885;-75
2022/09/12 00:40:36;;;;;;;18.17;12.77;;;14.00;99.90;;;13.01;100.00;97483.66;5072329;28;20491;-75
2022/09/12 00:43:02;;;;;;;16.27;12.52;;;14.00;99.90;;;13.00;100.00;97487.41;5071689;28;20475;-75
2022/09/12 00:45:29;;;;;;;16.45;12.27;;;14.00;99.90;;;12.99;100.00;97475.97;5072288;28;20399;-75
2022/09/12 00:47:57;;;;;;;18.15;12.73;;;13.90;99.90;;;12.95;100.00;97482.06;5072259;28;20492;-75
2022/09/12 00:50:24;;;;;;;18.92;13.98;;;13.90;99.90;;;12.94;100.00;97486.56;5072161;28;20457;-75
2022/09/12 00:52:56;;;;;;;17.38;12.73;;;13.90;99.90;;;12.91;100.00;97484.44;5071501;28;20498;-75
2022/09/12 00:55:30;;;;;;;19.38;14.00;;;13.80;99.90;;;12.86;100.00;97479.13;5072017;28;20491;-75
2022/09/12 00:58:00;;;;;;;27.67;16.07;;;13.80;99.90;;;12.87;100.00;97480.72;5070719;28;20412;-75
2022/09/12 01:00:28;;;;;;;19.58;13.30;;;13.80;99.90;;;12.93;100.00;97478.88;5071967;28;20396;-75
2022/09/12 01:02:59;;;;;;;19.10;14.37;;;13.80;99.90;;;12.83;100.00;97479.66;5071169;28;20478;-75
2022/09/12 01:05:30;;;;;;;24.43;16.43;;;13.80;99.90;;;12.83;100.00;97476.19;5072015;28;20438;-75
2022/09/12 01:07:56;;;;;;;21.55;15.63;;;13.80;99.90;;;12.82;100.00;97471.94;5072015;28;20445;-75
2022/09/12 01:10:23;;;;;;;21.58;14.82;;;13.80;99.90;;;12.81;100.00;97463.16;5071822;28;20396;-76
2022/09/12 01:12:49;;;;;;;20.45;14.18;;;13.80;99.90;;;12.80;100.00;97464.22;5070971;28;20802;-75
2022/09/12 01:15:15;;;;;;;21.02;14.40;;;13.80;99.90;;;12.77;100.00;97460.25;5071581;28;20419;-75
2022/09/12 01:17:59;;;;;;;22.63;14.27;;;13.70;99.90;;;12.76;100.00;97457.88;5070327;28;20491;-75
2022/09/12 01:21:04;;;;;;;19.92;14.70;;;13.70;99.90;;;12.72;100.00;97454.91;5071679;28;20804;-76
2022/09/12 01:24:36;;;;;;;20.17;14.38;;;13.70;99.90;;;12.68;100.00;97445.88;5071085;28;20490;-75
2022/09/12 01:27:39;;;;;;;21.75;13.50;;;13.70;99.90;;;12.67;100.00;97444.28;5071407;28;20759;-75
2022/09/12 01:30:23;;;;;;;21.05;15.07;;;13.60;99.90;;;12.64;100.00;97444.00;5032485;28;20772;-75
2022/09/12 01:33:15;;;;;;;22.73;14.32;;;13.60;99.90;;;12.58;100.00;97442.41;5069160;28;20396;-76
2022/09/12 01:35:51;;;;;;;18.98;14.43;;;13.60;99.90;;;12.55;100.00;97445.59;5070963;28;20424;-76
2022/09/12 01:38:26;;;;;;;22.83;14.80;;;13.50;99.90;;;12.52;100.00;97441.59;5071197;28;20487;-76
2022/09/12 01:41:08;;;;;;;20.10;14.00;;;13.50;99.90;;;12.51;100.00;97445.31;5071088;28;20403;-75
2022/09/12 01:43:44;;;;;;;18.88;13.80;;;13.50;99.90;;;12.48;100.00;97440.50;5070505;28;20411;-75
2022/09/12 01:46:16;;;;;;;20.35;13.43;;;13.50;99.90;;;12.48;100.00;97439.75;5071310;28;20399;-76
2022/09/12 01:48:50;;;;;;;18.38;13.40;;;13.50;99.90;;;12.47;100.00;97433.63;5071191;28;20400;-76
2022/09/12 01:51:22;;;;;;;20.63;12.57;;;13.50;99.90;;;12.47;100.00;97432.84;5071243;28;20460;-75
2022/09/12 01:53:51;;;;;;;19.10;13.63;;;13.40;99.90;;;12.40;100.00;97431.19;5070522;28;20388;-75
2022/09/12 01:56:24;;;;;;;21.42;14.00;;;13.40;99.90;;;12.38;100.00;97435.19;5071036;28;20423;-74
2022/09/12 01:58:56;;;;;;;17.02;12.93;;;13.40;99.90;;;12.36;100.00;97438.09;5070974;28;20446;-75
2022/09/12 02:01:28;;;;;;;18.80;13.23;;;13.40;99.90;;;12.34;100.00;97423.47;5070782;28;20406;-74
2022/09/12 02:04:03;;;;;;;18.58;13.25;;;13.30;99.90;;;12.34;100.00;97428.78;5070348;28;20395;-75
2022/09/12 02:06:34;;;;;;;19.17;12.45;;;13.30;99.90;;;12.32;100.00;97422.97;5071049;28;20407;-75
2022/09/12 02:09:05;;;;;;;16.65;12.60;;;13.30;99.90;;;12.34;100.00;97428.78;5071049;28;20388;-76
2022/09/12 02:11:35;;;;;;;17.88;12.02;;;13.30;99.90;;;12.34;100.00;97423.47;5071515;28;20411;-76
2022/09/12 02:14:08;;;;;;;16.83;12.27;;;13.30;99.90;;;12.31;100.00;97418.72;5071344;22;20429;-76
2022/09/12 02:16:40;;;;;;;16.58;12.27;;;13.30;99.90;;;12.29;100.00;97420.81;5042855;28;20439;-76
2022/09/12 02:19:14;;;;;;;17.63;11.98;;;13.30;99.90;;;12.31;100.00;97418.72;5050524;28;20897;-76
2022/09/12 02:21:45;;;;;;;15.75;12.00;;;13.20;99.90;;;12.30;100.00;97419.78;5050554;28;20484;-76
2022/09/12 02:24:13;;;;;;;16.90;12.43;;;13.20;99.90;;;12.25;100.00;97409.94;5062382;28;20418;-76
2022/09/12 02:26:48;;;;;;;17.30;12.38;;;13.20;99.90;;;12.24;100.00;97410.19;5070351;28;20396;-76
2022/09/12 02:29:14;;;;;;;25.17;12.02;;;13.20;99.90;;;12.28;100.00;97409.41;5062100;28;20395;-76
2022/09/12 02:31:46;;;;;;;21.92;11.68;;;13.20;99.90;;;12.28;100.00;97411.25;5070359;28;20479;-77
2022/09/12 02:34:31;;;;;;;13.35;10.93;;;13.20;99.90;;;12.23;100.00;97409.41;5069749;28;20416;-75
2022/09/12 02:37:08;;;;;;;16.38;10.85;;;13.20;99.90;;;12.22;100.00;97407.00;5070441;28;20410;-75
2022/09/12 02:39:34;;;;;;;16.45;11.18;;;13.20;99.90;;;12.21;100.00;97408.84;5070391;28;20478;-75
2022/09/12 02:42:02;;;;;;;15.95;11.15;;;13.20;99.90;;;12.17;100.00;97399.84;5052145;28;20403;-75
2022/09/12 02:44:30;;;;;;;19.38;11.95;;;13.10;99.90;;;12.12;100.00;97406.97;5069498;28;20411;-75
2022/09/12 02:47:03;;;;;;;15.60;11.00;;;13.10;99.90;;;12.10;100.00;97401.94;5069056;28;20411;-76
2022/09/12 02:49:29;;;;;;;17.08;11.15;;;13.10;99.90;;;12.10;100.00;97403.78;5068757;28;20391;-76
2022/09/12 02:51:55;;;;;;;19.58;11.10;;;13.10;99.90;;;12.08;100.00;97403.25;5058253;28;20451;-75
2022/09/12 02:54:22;;;;;;;13.65;11.30;;;13.00;99.90;;;12.04;100.00;97395.00;5059900;28;20427;-75
2022/09/12 02:56:48;;;;;;;15.82;11.50;;;13.00;99.90;;;12.02;100.00;97395.28;5062319;28;20895;-75
2022/09/12 02:59:18;;;;;;;16.70;12.13;;;13.00;99.90;;;12.01;100.00;97396.31;5070215;28;20396;-75
2022/09/12 03:02:13;;;;;;;18.23;12.52;;;13.00;99.90;;;12.01;100.00;97396.31;5070081;28;20404;-75
2022/09/12 03:04:57;;;;;;;14.88;11.63;;;13.00;99.90;;;12.02;100.00;97399.78;5069558;28;20396;-77
2022/09/12 03:07:43;;;;;;;17.88;11.65;;;13.00;99.90;;;11.99;100.00;97393.13;5069982;28;20948;-76
2022/09/12 03:10:20;;;;;;;15.23;11.55;;;13.00;99.90;;;11.97;100.00;97389.94;5070049;28;20423;-76
2022/09/12 03:13:02;;;;;;;17.55;11.63;;;12.90;99.90;;;11.91;100.00;97393.63;5069532;28;20800;-76
2022/09/12 03:15:45;;;;;;;22.95;12.90;;;12.90;99.90;;;11.90;100.00;97391.22;5090136;28;20421;-76
2022/09/12 03:18:30;;;;;;;19.20;12.45;;;12.90;99.90;;;11.89;100.00;97394.94;5090022;28;20397;-76
2022/09/12 03:21:06;;;;;;;18.73;12.60;;;12.90;99.90;;;11.85;100.00;97399.97;5069991;28;20433;-77
2022/09/12 03:23:39;;;;;;;18.93;13.00;;;12.90;99.90;;;11.85;100.00;97402.63;5069561;28;20875;-75
2022/09/12 03:26:11;;;;;;;17.92;13.65;;;12.90;99.90;;;11.82;100.00;97405.78;5069929;28;20735;-75
2022/09/12 03:28:38;;;;;;;19.58;12.82;;;12.80;99.90;;;11.79;100.00;97406.31;5069995;28;20432;-75
2022/09/12 03:31:13;;;;;;;17.50;13.23;;;12.80;99.90;;;11.77;100.00;97402.31;5069961;28;20401;-75
2022/09/12 03:33:41;;;;;;;17.63;12.50;;;12.80;99.90;;;11.77;100.00;97399.66;5069297;28;20412;-76
2022/09/12 03:36:14;;;;;;;18.53;13.50;;;12.80;99.90;;;11.77;100.00;97402.31;5069866;28;20555;-76
2022/09/12 03:38:40;;;;;;;20.58;14.15;;;12.80;99.90;;;11.78;100.00;97401.25;5069918;28;20396;-76
2022/09/12 03:41:06;;;;;;;21.73;13.68;;;12.80;99.90;;;11.77;100.00;97402.31;5069784;28;20483;-76
2022/09/12 03:43:32;;;;;;;18.05;13.07;;;12.70;99.90;;;11.76;100.00;97398.84;5084811;28;20916;-76
2022/09/12 03:45:58;;;;;;;18.48;12.30;;;12.80;99.90;;;11.73;100.00;97399.31;5069799;28;20765;-76
2022/09/12 03:48:24;;;;;;;17.80;12.80;;;12.70;99.90;;;11.71;100.00;97398.81;5071624;28;20964;-77
2022/09/12 03:50:51;;;;;;;19.90;13.10;;;12.70;99.90;;;11.68;100.00;97396.66;5063376;28;20416;-76
2022/09/12 03:53:17;;;;;;;19.20;12.50;;;12.70;99.90;;;11.70;100.00;97397.22;5085011;28;20407;-77
2022/09/12 03:55:43;;;;;;;19.20;13.50;;;12.70;99.90;;;11.67;100.00;97402.22;5086569;28;20469;-76
2022/09/12 03:58:09;;;;;;;23.33;13.32;;;12.60;99.90;;;11.61;100.00;97404.84;5073054;28;20402;-77
2022/09/12 04:00:35;;;;;;;19.67;13.80;;;12.60;99.90;;;11.60;100.00;97397.94;5071154;28;20941;-76
2022/09/12 04:03:01;;;;;;;20.40;13.87;;;12.60;99.90;;;11.62;100.00;97400.34;5072423;28;20441;-76
2022/09/12 04:05:26;;;;;;;19.77;14.10;;;12.60;99.90;;;11.60;100.00;97397.94;5076721;28;20387;-76
2022/09/12 04:07:54;;;;;;;19.15;13.50;;;12.60;99.90;;;11.61;100.00;97401.41;5082223;28;20839;-76
2022/09/12 04:10:20;;;;;;;21.02;13.43;;;12.60;99.90;;;11.59;100.00;97399.00;5083305;28;20402;-76
2022/09/12 04:12:45;;;;;;;18.10;12.95;;;12.60;99.90;;;11.57;100.00;97400.31;5086971;28;20405;-76
2022/09/12 04:15:11;;;;;;;22.13;13.75;;;12.60;99.90;;;11.55;100.00;97397.91;5081283;28;20813;-76
2022/09/12 04:17:37;;;;;;;26.25;14.18;;;12.60;99.90;;;11.58;100.00;97396.59;5092898;28;20406;-76
2022/09/12 04:20:05;;;;;;;20.42;13.55;;;12.60;99.90;;;11.55;100.00;97399.78;5092926;28;20406;-76
2022/09/12 04:22:32;;;;;;;20.00;13.65;;;12.50;99.90;;;11.52;100.00;97395.78;5089228;28;20535;-76
2022/09/12 04:24:59;;;;;;;17.67;12.00;;;12.50;99.90;;;11.52;100.00;97393.13;5072849;28;20897;-75
2022/09/12 04:27:25;;;;;;;19.42;13.10;;;12.50;99.90;;;11.52;100.00;97398.44;5075203;28;20400;-75
2022/09/12 04:29:52;;;;;;;18.87;13.07;;;12.50;99.90;;;11.57;100.00;97395.03;5072656;28;20407;-75
2022/09/12 04:32:18;;;;;;;20.58;13.20;;;12.50;99.90;;;11.53;100.00;97393.94;5072449;28;20408;-75
2022/09/12 04:34:44;;;;;;;19.50;12.90;;;12.50;99.90;;;11.50;100.00;97394.44;5071825;28;20932;-75
2022/09/12 04:37:10;;;;;;;19.23;12.88;;;12.50;99.90;;;11.50;100.00;97392.56;5072427;28;20396;-75
2022/09/12 04:39:36;;;;;;;18.77;12.77;;;12.50;99.90;;;11.48;100.00;97393.91;5054461;28;20626;-76
2022/09/12 04:42:04;;;;;;;20.05;12.60;;;12.50;99.90;;;11.45;100.00;97389.91;5072262;28;20411;-76
2022/09/12 04:44:30;;;;;;;17.20;12.13;;;12.50;99.90;;;11.45;100.00;97389.09;5071893;28;20449;-75
2022/09/12 04:46:56;;;;;;;15.75;12.20;;;12.40;99.90;;;11.45;100.00;97397.06;5072973;28;20410;-84
2022/09/12 04:49:22;;;;;;;16.38;12.32;;;12.40;99.90;;;11.44;100.00;97398.09;5073305;28;20419;-86
2022/09/12 04:51:51;;;;;;;17.83;12.45;;;12.40;99.90;;;11.42;100.00;97393.09;5085626;28;20419;-75
2022/09/12 04:54:18;;;;;;;21.88;12.40;;;12.40;99.90;;;11.41;100.00;97394.13;5080227;28;20414;-75
2022/09/12 04:56:47;;;;;;;18.17;12.52;;;12.40;99.90;;;11.39;100.00;97392.78;5081550;28;20876;-75
2022/09/12 04:59:17;;;;;;;16.27;12.35;;;12.40;99.90;;;11.40;100.00;97386.44;5088336;28;20413;-76
2022/09/12 05:01:43;;;;;;;15.85;12.10;;;12.40;99.90;;;11.38;100.00;97389.34;5084938;28;20414;-75
2022/09/12 05:04:09;;;;;;;16.57;11.83;;;12.40;99.90;;;11.38;100.00;97388.53;5082949;28;20417;-83
2022/09/12 05:06:37;;;;;;;16.83;12.10;;;12.40;99.90;;;11.38;100.00;97388.53;5078949;28;20447;-75
2022/09/12 05:09:05;;;;;;;16.75;12.90;;;12.40;99.90;;;11.36;100.00;97388.78;5085348;28;20920;-75
2022/09/12 05:11:36;;;;;;;18.88;12.48;;;12.30;99.90;;;11.36;100.00;97393.28;5090064;28;20858;-75
2022/09/12 05:14:03;;;;;;;18.33;12.93;;;12.40;99.90;;;11.35;100.00;97389.81;5090980;28;20922;-76
2022/09/12 05:16:31;;;;;;;17.20;12.60;;;12.40;99.90;;;11.37;100.00;97395.69;5073764;28;20438;-75
2022/09/12 05:18:58;;;;;;;17.15;11.73;;;12.40;99.90;;;11.36;100.00;97386.13;5077426;28;20400;-75
2022/09/12 05:21:26;;;;;;;16.65;11.93;;;12.30;99.90;;;11.32;100.00;97397.50;5071564;28;20408;-77
2022/09/12 05:23:53;;;;;;;16.15;12.23;;;12.30;99.90;;;11.30;100.00;97387.16;5070943;28;20439;-76
2022/09/12 05:26:20;;;;;;;15.93;11.90;;;12.30;99.90;;;11.30;100.00;97383.72;5071439;28;20512;-75
2022/09/12 05:28:48;;;;;;;19.85;12.50;;;12.30;99.90;;;11.33;100.00;97389.31;5071365;28;20449;-75
2022/09/12 05:31:18;;;;;;;16.87;11.50;;;12.30;99.90;;;11.33;100.00;97386.66;5083683;28;20443;-77
2022/09/12 05:33:47;;;;;;;21.35;11.80;;;12.30;99.90;;;11.32;100.00;97400.16;5090940;28;20768;-76
2022/09/12 05:36:17;;;;;;;19.00;12.02;;;12.30;99.90;;;11.29;100.00;97401.47;5091484;28;20505;-76
2022/09/12 05:38:44;;;;;;;18.73;13.38;;;12.30;99.90;;;11.31;100.00;97398.56;5086369;28;20427;-73
2022/09/12 05:41:12;;;;;;;18.30;12.45;;;12.30;99.90;;;11.31;100.00;97399.34;5082172;28;20439;-73
2022/09/12 05:43:40;;;;;;;17.75;12.45;;;12.30;99.90;;;11.35;100.00;97399.66;5089827;28;20492;-72
2022/09/12 05:46:11;;;;;;;17.92;13.40;;;12.30;99.90;;;11.33;100.00;97399.09;5091389;28;20469;-73
2022/09/12 05:48:39;;;;;;;20.40;13.57;;;12.30;99.90;;;11.34;100.00;97396.22;5091398;28;20447;-73
2022/09/12 05:51:09;;;;;;;20.43;14.07;;;12.30;99.90;;;11.40;100.00;97410.28;5091204;28;20399;-73
2022/09/12 05:53:37;;;;;;;20.35;13.80;;;12.40;99.90;;;11.41;100.00;97402.09;5090821;28;20401;-73
2022/09/12 05:56:09;;;;;;;19.40;13.52;;;12.40;99.90;;;11.44;100.00;97404.19;5087046;28;20539;-75
2022/09/12 05:58:37;;;;;;;18.17;13.73;;;12.40;99.90;;;11.46;100.00;97404.75;5090792;28;20471;-75
2022/09/12 06:01:06;;;;;;;17.42;13.10;;;12.40;99.90;;;11.50;100.00;97405.06;5079601;28;20427;-76
2022/09/12 06:03:33;;;;;;;17.50;13.30;;;12.40;99.90;;;11.53;100.00;97407.19;5070213;28;20395;-75
2022/09/12 06:06:04;;;;;;;17.67;13.07;;;12.50;99.90;;;11.58;100.00;97408.00;5088796;28;20416;-76
2022/09/12 06:08:33;;;;;;;18.88;13.40;;;12.50;99.90;;;11.63;100.00;97409.91;5090965;28;20390;-75
2022/09/12 06:11:01;;;;;;;17.58;13.27;;;12.60;99.90;;;11.68;100.00;97407.25;5083662;28;20538;-75
2022/09/12 06:13:27;;;;;;;21.83;13.68;;;12.60;99.90;;;11.74;100.00;97408.09;5069873;28;20396;-75
2022/09/12 06:15:53;;;;;;;18.67;14.18;;;12.70;99.90;;;11.80;100.00;97404.44;5077185;28;20481;-75
2022/09/12 06:18:20;;;;;;;22.37;15.30;;;12.70;99.90;;;11.87;100.00;97400.50;5090258;28;20500;-75
2022/09/12 06:20:46;;;;;;;26.88;17.00;;;12.80;99.90;;;11.90;100.00;97405.28;5083756;28;20400;-76
2022/09/12 06:23:11;;;;;;;22.67;15.25;;;12.80;99.90;;;11.98;100.00;97394.19;5082866;28;20789;-75
2022/09/12 06:25:46;;;;;;;21.15;15.80;;;12.90;99.90;;;12.09;100.00;97405.63;5074467;28;20503;-75
2022/09/12 06:28:12;;;;;;;22.02;15.85;;;13.00;99.90;;;12.21;100.00;97400.91;5071239;28;20404;-76
2022/09/12 06:30:38;;;;;;;23.50;15.73;;;13.10;99.90;;;12.27;100.00;97399.84;5076917;28;20503;-79
2022/09/12 06:33:04;;;;;;;22.23;14.93;;;13.20;99.90;;;12.36;100.00;97402.78;5082538;28;20411;-74
2022/09/12 06:35:30;;;;;;;20.67;15.60;;;13.20;99.90;;;12.43;100.00;97400.69;5080439;28;20425;-75
2022/09/12 06:37:56;;;;;;;20.33;14.80;;;13.30;99.90;;;12.52;100.00;97398.31;5087407;28;20402;-77
2022/09/12 06:40:22;;;;;;;21.20;14.82;;;13.40;99.90;;;12.57;100.00;97400.97;5070334;28;20464;-77
2022/09/12 06:42:49;;;;;;;17.47;14.10;;;13.40;99.90;;;12.59;100.00;97397.00;5069823;28;20402;-78
2022/09/12 06:45:15;;;;;;;20.15;14.70;;;13.50;99.90;;;12.63;100.00;97400.72;5082929;28;20520;-77
2022/09/12 06:47:41;;;;;;;21.13;15.55;;;13.50;99.90;;;12.67;100.00;97396.50;5090463;28;20986;-76
2022/09/12 06:50:08;;;;;;;19.13;14.55;;;13.50;99.90;;;12.71;100.00;97400.19;5090349;28;20555;-76
2022/09/12 06:52:34;;;;;;;19.13;14.95;;;13.60;99.90;;;12.76;100.00;97402.09;5068466;28;20498;-74
2022/09/12 06:55:00;;;;;;;21.45;14.05;;;13.60;99.90;;;12.80;100.00;97405.78;5078397;28;20414;-74
2022/09/12 06:57:29;;;;;;;20.30;14.67;;;13.60;99.90;;;12.84;100.00;97409.53;5075496;28;20422;-76
2022/09/12 06:59:56;;;;;;;23.05;14.68;;;13.70;99.90;;;12.89;100.00;97411.38;5070053;28;20404;-78
2022/09/12 07:02:24;;;;;;;18.10;14.27;;;13.80;99.90;;;12.95;100.00;97416.44;5081461;28;20950;-74
2022/09/12 07:04:50;;;;;;;23.30;14.77;;;13.80;99.90;;;13.00;100.00;97407.69;5082744;28;20508;-75
2022/09/12 07:07:16;;;;;;;16.88;13.00;;;13.80;99.90;;;13.08;100.00;97410.56;5087073;28;20409;-74
2022/09/12 07:09:43;;;;;;;18.00;13.53;;;13.90;99.90;;;13.12;100.00;97411.66;5064772;28;20413;-76
2022/09/12 07:12:09;;;;;;;17.40;12.83;;;14.00;99.90;;;13.20;100.00;97406.91;5085214;28;20418;-77
2022/09/12 07:14:35;;;;;;;18.10;12.85;;;14.00;99.90;;;13.26;100.00;97396.00;5070275;28;20408;-74
2022/09/12 07:17:02;;;;;;;15.80;12.05;;;14.10;99.90;;;13.34;100.00;97397.31;5076395;28;20460;-74
2022/09/12 07:19:28;;;;;;;15.65;12.27;;;14.20;99.90;;;13.40;100.00;97389.06;5083449;28;20412;-74
2022/09/12 07:21:54;;;;;;;15.57;11.13;;;14.20;99.90;;;13.51;100.00;97403.16;5075451;28;20549;-74
2022/09/12 07:24:20;;;;;;;13.23;11.20;;;14.30;99.90;;;13.59;100.00;97402.59;5067918;28;20611;-74
2022/09/12 07:26:46;;;;;;;13.95;10.35;;;14.40;99.90;;;13.70;100.00;97404.16;5073306;28;20415;-74
2022/09/12 07:29:15;;;;;;;14.07;10.30;;;14.50;99.90;;;13.76;100.00;97402.25;5072925;28;20411;-74
2022/09/12 07:31:41;;;;;;;14.82;10.52;;;14.60;99.90;;;13.84;100.00;97393.72;5075598;28;20437;-74
2022/09/12 07:34:09;;;;;;;13.93;10.00;;;14.60;99.90;;;13.95;100.00;97392.63;5090794;28;20851;-73
2022/09/12 07:36:35;;;;;;;14.40;9.75;;;14.70;99.90;;;13.91;100.00;97400.34;5076828;28;20430;-75
2022/09/12 07:39:01;;;;;;;14.65;8.45;;;14.70;99.90;;;13.97;100.00;97395.03;5091931;28;20417;-77
2022/09/12 07:41:29;;;;;;;13.53;8.60;;;14.80;99.90;;;14.02;100.00;97398.47;5085863;28;20461;-75
2022/09/12 07:43:57;;;;;;;11.30;8.35;;;14.90;99.90;;;14.16;100.00;97398.66;5088280;28;20950;-76
2022/09/12 07:46:25;;;;;;;13.13;8.05;;;15.00;99.90;;;14.36;100.00;97398.56;5091468;28;20401;-76
2022/09/12 07:48:53;;;;;;;10.85;8.07;;;15.10;99.90;;;14.50;100.00;97404.13;5073262;28;20612;-76
2022/09/12 07:51:21;;;;;;;10.27;6.70;;;15.30;99.90;;;14.59;100.00;97397.13;5074195;28;20407;-75
2022/09/12 07:53:48;;;;;;;9.63;5.70;;;15.30;99.90;;;14.61;100.00;97393.13;5083879;28;20406;-75
2022/09/12 07:56:15;;;;;;;11.50;5.90;;;15.50;99.90;;;14.76;100.00;97400.22;5092982;28;20894;-73
2022/09/12 07:58:42;;;;;;;8.57;5.70;;;15.50;99.90;;;14.83;100.00;97400.69;5073932;28;20575;-75
2022/09/12 08:01:12;;;;;;;10.02;5.68;;;15.70;99.90;;;14.95;99.15;97397.69;5074172;28;20407;-75
2022/09/12 08:03:38;;;;;;;8.60;5.70;;;15.70;99.90;;;15.08;98.15;97397.84;5079290;28;20398;-75
2022/09/12 08:06:06;;;;;;;7.25;5.28;;;15.80;99.90;;;15.18;98.65;97391.66;5086299;28;20540;-76
2022/09/12 08:08:34;;;;;;;6.80;5.40;;;15.90;99.90;;;15.30;100.00;97399.25;5085788;28;20779;-75
2022/09/12 08:11:04;;;;;;;7.00;5.10;;;16.00;99.90;;;15.30;96.40;97404.59;5093058;28;20394;-74
2022/09/12 08:13:31;;;;;;;5.80;4.70;;;16.10;99.90;;;15.37;92.47;97391.72;5102348;22;20412;-76
2022/09/12 08:15:59;;;;;;;7.57;4.40;;;16.10;99.90;;;15.44;94.25;97395.66;5050532;28;20425;-75
2022/09/12 08:18:25;;;;;;;7.10;4.37;;;16.20;99.90;;;15.59;91.73;97396.59;5051148;28;20405;-76
2022/09/12 08:20:56;;;;;;;5.80;4.03;;;16.40;99.90;;;15.66;87.02;97395.19;5052610;28;20405;-75
2022/09/12 08:23:23;;;;;;;6.57;4.57;;;16.40;99.90;;;15.79;90.27;97397.19;5053945;28;21064;-76
2022/09/12 08:25:54;;;;;;;4.85;4.30;;;16.50;99.90;;;15.87;91.85;97393.88;5072781;28;20753;-75
2022/09/12 08:28:19;;;;;;;6.97;4.88;;;16.60;99.90;;;15.95;92.90;97394.34;5053679;28;20421;-77
2022/09/12 08:30:45;;;;;;;7.65;4.57;;;16.60;99.90;;;15.97;92.43;97397.53;5052410;28;20409;-77
2022/09/12 08:33:11;;;;;;;7.07;4.90;;;16.70;99.90;;;16.17;87.65;97391.94;5043369;28;20485;-73
2022/09/12 08:35:37;;;;;;;4.87;4.30;;;16.80;99.90;;;16.22;87.30;97392.69;5032514;28;20510;-76
2022/09/12 08:38:03;;;;;;;5.60;4.00;;;16.90;99.90;;;16.23;84.96;97402.28;5039192;28;20805;-74
2022/09/12 08:40:29;;;;;;;7.00;4.83;;;16.90;99.90;;;16.27;87.68;97400.63;5050995;28;20420;-75
2022/09/12 08:43:09;;;;;;;7.45;5.32;;;17.00;99.90;;;16.33;89.17;97397.88;5045515;28;20405;-75
2022/09/12 08:45:46;;;;;;;8.73;6.30;;;17.00;99.90;;;16.36;89.48;97390.09;5033349;28;20419;-77
2022/09/12 08:48:13;;;;;;;7.70;5.38;;;17.00;99.90;;;16.46;90.85;97389.16;5032321;28;21030;-78
2022/09/12 08:50:43;;;;;;;7.55;5.72;;;17.10;99.90;;;16.53;91.29;97387.72;5032256;28;20453;-78
2022/09/12 08:53:15;;;;;;;11.27;6.57;;;17.20;99.90;;;16.47;84.50;97386.19;5031865;28;20460;-75
2022/09/12 08:55:44;;;;;;;7.97;5.97;;;17.20;99.90;;;16.62;87.73;97387.88;5035042;28;20421;-78
2022/09/12 08:58:15;;;;;;;6.25;5.28;;;17.30;99.90;;;16.68;88.61;97389.41;5052106;28;20402;-76
2022/09/12 09:00:52;;;;;;;7.72;5.30;;;17.30;99.90;;;16.77;89.33;97387.66;5043890;28;21103;-75
2022/09/12 09:04:05;;;;;;;7.97;5.47;;;17.40;99.90;;;16.85;89.75;97386.19;5044393;28;20406;-78
2022/09/12 09:06:51;;;;;;;8.43;4.93;;;17.50;99.90;;;16.91;88.64;97391.22;5048658;28;20421;-76
2022/09/12 09:09:28;;;;;;;9.43;4.82;;;17.50;99.90;;;16.98;88.67;97388.94;5050920;28;20906;-76
2022/09/12 09:12:08;;;;;;;7.22;4.60;;;17.60;99.90;;;17.02;88.92;97381.13;5032400;28;20439;-76
2022/09/12 09:15:02;;;;;;;5.47;4.37;;;17.70;99.90;;;17.13;88.78;97381.75;5030976;28;20817;-76
2022/09/12 09:17:33;;;;;;;5.93;4.38;;;17.70;99.90;;;17.18;88.18;97387.03;5040045;28;20429;-75
2022/09/12 09:20:10;;;;;;;8.98;4.78;;;17.80;99.90;;;17.23;88.28;97385.03;5032827;28;20420;-75
2022/09/12 09:22:43;;;;;;;9.95;4.47;;;17.80;99.90;;;17.35;88.56;97389.94;5051418;28;20894;-76
2022/09/12 09:25:17;;;;;;;5.55;3.80;;;17.90;99.90;;;17.45;88.75;97372.91;5051313;28;20496;-75
2022/09/12 09:27:52;;;;;;;7.77;4.20;;;18.00;99.90;;;17.55;88.21;97375.41;5050189;28;20409;-78
2022/09/12 09:30:20;;;;;;;5.00;3.67;;;18.10;99.90;;;17.64;87.40;97371.78;5048332;28;20978;-79
2022/09/12 09:32:52;;;;;;;3.65;3.30;;;18.20;99.90;;;17.69;84.55;97379.69;5035891;28;20414;-79
2022/09/12 09:35:26;;;;;;;4.50;2.80;;;18.30;99.90;;;17.70;75.54;97372.47;5035317;28;20896;-76
2022/09/12 09:38:04;;;;;;;3.70;3.00;;;18.30;99.90;;;17.81;78.97;97373.88;5031258;28;20410;-77
2022/09/12 09:40:44;;;;;;;5.30;2.72;;;18.40;99.90;;;17.92;74.38;97379.81;5037266;28;20555;-76
2022/09/12 09:43:21;;;;;;;6.47;2.95;;;18.50;99.90;;;18.06;78.88;97386.75;5050321;28;20409;-76
2022/09/12 09:45:50;;;;;;;4.70;2.60;;;18.60;99.90;;;18.14;80.21;97390.59;5041612;28;20403;-76
2022/09/12 09:48:20;;;;;;;5.30;2.60;;;18.70;99.90;;;18.17;76.77;97381.97;5031046;28;20453;-75
2022/09/12 09:50:48;;;;;;;3.65;2.55;;;18.80;99.90;;;18.26;78.76;97380.19;5034258;28;20411;-76
2022/09/12 09:53:30;;;;;;;3.47;2.60;;;18.80;99.90;;;18.42;74.04;97381.44;5031224;28;20915;-76
2022/09/12 09:56:02;;;;;;;2.90;2.47;;;18.90;99.90;;;18.47;75.11;97386.69;5039530;28;20428;-78
2022/09/12 09:58:30;;;;;;;2.75;2.40;;;19.10;99.90;;;18.46;68.64;97379.75;5044620;28;20411;-75
2022/09/12 10:01:00;;;;;;;3.53;2.17;;;19.10;97.50;;;18.40;63.18;97380.16;5046061;28;20425;-76
2022/09/12 10:03:34;;;;;;;3.80;2.60;;;19.10;91.20;;;18.60;70.43;97377.06;5062458;28;20400;-76
2022/09/12 10:06:06;;;;;;;2.63;2.25;;;19.20;98.00;;;18.76;69.93;97370.25;5051998;28;20424;-75
2022/09/12 10:08:35;;;;;;;3.33;2.20;;;19.30;98.30;;;18.75;67.46;97367.88;5069442;28;21174;-76
2022/09/12 10:11:05;;;;;;;2.58;2.20;;;19.30;95.00;;;18.83;70.97;97375.97;5057587;28;20394;-75
2022/09/12 10:13:36;;;;;;;2.95;2.20;;;19.40;98.70;;;19.03;63.76;97372.00;5049534;28;20801;-76
2022/09/12 10:16:17;;;;;;;2.70;2.30;;;19.60;92.60;;;19.15;66.37;97368.78;5044022;28;20466;-75
2022/09/12 10:18:43;;;;;;;3.67;2.20;;;19.60;93.70;;;19.17;62.09;97363.91;5050641;28;20455;-77